Time;durP1;ratioP1;P1;durP2;ratioP2;P2;SDS_P1;SDS_P2;PMS_P1;PMS_P2;Temp;Humidity;BMP_temperature;BMP_pressure;BME280_temperature;BME280_humidity;BME280_pressure;Samples;Min_cycle;Max_cycle;Signal;HPM_P1;HPM_P2
2022/08/03 00:00:38;;;;;;;;;5.75;2.75;;;;;25.82;48.35;101300.75;5058548;28;45448;-77
2022/08/03 00:03:04;;;;;;;;;4.75;3.25;;;;;25.83;48.27;101310.44;5040185;28;45448;-77
2022/08/03 00:05:31;;;;;;;;;3.00;3.00;;;;;25.77;48.96;101306.47;5075557;28;45416;-77
2022/08/03 00:07:57;;;;;;;;;5.00;3.75;;;;;25.78;48.19;101307.31;5078375;28;45357;-77
2022/08/03 00:10:22;;;;;;;;;4.25;4.00;;;;;25.78;48.22;101312.63;5078131;28;45546;-77
2022/08/03 00:12:48;;;;;;;;;5.25;2.75;;;;;25.76;48.81;101314.59;5078466;28;45331;-77
2022/08/03 00:15:13;;;;;;;;;1.75;1.75;;;;;25.74;48.04;101313.88;5077974;28;46236;-77
2022/08/03 00:17:38;;;;;;;;;4.25;3.25;;;;;25.77;48.29;101321.63;5077383;28;70323;-77
2022/08/03 00:20:04;;;;;;;;;3.75;3.25;;;;;25.72;49.12;101318.50;5077502;28;66638;-77
2022/08/03 00:22:29;;;;;;;;;4.50;3.00;;;;;25.65;49.22;101313.69;5078284;28;45316;-77
2022/08/03 00:24:55;;;;;;;;;2.00;2.00;;;;;25.64;49.02;101325.31;5077365;28;45441;-77
2022/08/03 00:27:20;;;;;;;;;5.00;2.50;;;;;25.60;48.50;101318.56;5077566;28;52940;-76
2022/08/03 00:29:46;;;;;;;;;4.00;2.00;;;;;25.62;48.81;101323.75;5078270;28;45830;-77
2022/08/03 00:32:11;;;;;;;;;2.00;2.00;;;;;25.58;48.76;101309.00;5062131;28;61801;-77
2022/08/03 00:34:36;;;;;;;;;1.75;1.00;;;;;25.59;48.83;101316.84;5056369;28;76546;-77
2022/08/03 00:37:02;;;;;;;;;2.00;1.00;;;;;25.58;48.78;101311.66;5057016;28;63190;-76
2022/08/03 00:39:27;;;;;;;;;1.25;1.00;;;;;25.52;48.90;101307.69;5057368;28;45497;-77
2022/08/03 00:41:52;;;;;;;;;2.00;2.00;;;;;25.49;48.77;101313.28;5057574;28;45319;-77
2022/08/03 00:44:18;;;;;;;;;3.00;1.00;;;;;25.37;48.19;101307.16;5056486;28;71015;-77
2022/08/03 00:46:43;;;;;;;;;2.25;2.00;;;;;25.39;48.64;101307.88;5056609;28;72062;-77
2022/08/03 00:49:08;;;;;;;;;2.75;1.75;;;;;25.35;48.37;101306.41;5057720;28;45359;-77
2022/08/03 00:51:34;;;;;;;;;1.50;1.25;;;;;25.31;48.58;101299.66;5057421;28;45416;-77
2022/08/03 00:53:59;;;;;;;;;1.00;1.00;;;;;25.33;48.63;101308.34;5038933;28;46141;-77
2022/08/03 00:56:25;;;;;;;;;3.25;1.00;;;;;25.28;49.02;101310.56;5038481;28;68242;-77
2022/08/03 00:58:51;;;;;;;;;3.25;1.00;;;;;25.22;48.75;101305.69;5056419;28;68445;-77
2022/08/03 01:01:16;;;;;;;;;1.75;1.75;;;;;25.24;48.60;101307.31;5038409;28;65743;-77
2022/08/03 01:03:41;;;;;;;;;1.00;1.00;;;;;25.19;48.40;101300.66;5059474;28;45355;-77
2022/08/03 01:06:23;;;;;;;;;2.00;1.00;;;;;25.20;48.97;101305.81;5076109;28;71741;-77
2022/08/03 01:09:12;;;;;;;;;1.25;1.25;;;;;25.18;48.77;101305.09;5059115;28;45552;-77
2022/08/03 01:11:46;;;;;;;;;1.25;1.00;;;;;25.14;48.71;101298.34;5066332;28;45612;-77
2022/08/03 01:14:20;;;;;;;;;3.00;1.00;;;;;25.14;48.52;101301.00;5058854;28;46418;-75
2022/08/03 01:16:54;;;;;;;;;1.00;1.00;;;;;25.14;48.83;101292.19;5059276;28;45463;-77
2022/08/03 01:19:25;;;;;;;;;2.75;1.25;;;;;25.09;49.26;101289.88;5059274;28;45383;-76
2022/08/03 01:22:09;;;;;;;;;0.75;0.75;;;;;25.04;49.35;101289.44;5077418;28;45365;-77
2022/08/03 01:25:01;;;;;;;;;0.00;0.00;;;;;24.99;48.70;101280.97;5076457;28;46164;-77
2022/08/03 01:27:54;;;;;;;;;2.75;1.50;;;;;24.99;48.71;101284.47;5077247;28;45446;-77
2022/08/03 01:30:19;;;;;;;;;1.00;1.00;;;;;24.98;49.07;101288.09;5059321;28;45617;-77
2022/08/03 01:33:09;;;;;;;;;1.25;1.25;;;;;24.93;49.55;101283.16;5038998;28;49661;-77
2022/08/03 01:35:43;;;;;;;;;4.25;1.75;;;;;24.91;49.37;101284.25;5038601;28;46301;-76
2022/08/03 01:38:12;;;;;;;;;1.25;1.25;;;;;24.90;49.65;101278.06;5056470;28;45325;-77
2022/08/03 01:40:39;;;;;;;;;1.25;1.25;;;;;24.80;49.56;101276.28;5038836;28;45342;-77
2022/08/03 01:43:05;;;;;;;;;2.00;1.00;;;;;24.77;49.30;101277.38;5056646;28;45427;-77
2022/08/03 01:45:31;;;;;;;;;2.00;2.00;;;;;24.73;49.49;101278.59;5038533;28;46378;-77
2022/08/03 01:47:57;;;;;;;;;1.25;1.00;;;;;24.70;49.20;101271.69;5056457;28;45943;-77
2022/08/03 01:50:26;;;;;;;;;1.00;1.00;;;;;24.65;48.88;101265.91;5038287;28;51091;-77
2022/08/03 01:52:54;;;;;;;;;0.50;0.50;;;;;24.64;49.05;101277.50;5038380;28;45361;-77
2022/08/03 01:55:21;;;;;;;;;1.00;1.00;;;;;24.61;49.17;101267.13;5038394;28;46615;-76
2022/08/03 01:57:48;;;;;;;;;1.00;1.00;;;;;24.56;49.37;101266.63;5056425;28;45793;-77
2022/08/03 02:00:14;;;;;;;;;0.75;0.75;;;;;24.52;49.25;101263.38;5038555;28;45356;-77
2022/08/03 02:02:41;;;;;;;;;1.75;0.75;;;;;24.49;49.35;101263.56;5038408;28;45454;-77
2022/08/03 02:05:09;;;;;;;;;2.00;1.00;;;;;24.47;49.44;101260.19;5052281;28;46500;-77
2022/08/03 02:07:35;;;;;;;;;1.00;0.75;;;;;24.43;49.87;101261.41;5058080;28;45383;-77
2022/08/03 02:10:03;;;;;;;;;1.00;0.75;;;;;24.41;50.25;101257.19;5058614;28;45338;-77
2022/08/03 02:12:30;;;;;;;;;1.25;1.00;;;;;24.40;50.21;101266.13;5076502;28;45354;-77
2022/08/03 02:14:56;;;;;;;;;1.00;1.00;;;;;24.32;49.63;101251.59;5057938;28;45418;-77
2022/08/03 02:17:24;;;;;;;;;1.00;1.00;;;;;24.29;49.88;101249.22;5058294;28;45411;-77
2022/08/03 02:19:49;;;;;;;;;0.50;0.50;;;;;24.32;50.02;101261.41;5075805;28;45634;-77
2022/08/03 02:22:15;;;;;;;;;2.50;1.00;;;;;24.32;49.76;101253.44;5075522;28;56388;-77
2022/08/03 02:24:40;;;;;;;;;2.00;1.50;;;;;24.35;49.67;101258.53;5063838;28;45369;-76
2022/08/03 02:27:12;;;;;;;;;1.00;1.00;;;;;24.29;49.64;101258.97;5075849;28;53983;-77
2022/08/03 02:29:39;;;;;;;;;1.25;1.00;;;;;24.27;50.01;101248.47;5075210;28;45491;-76
2022/08/03 02:32:05;;;;;;;;;0.75;0.00;;;;;24.25;49.91;101247.72;5074913;28;45484;-77
2022/08/03 02:34:33;;;;;;;;;3.75;1.00;;;;;24.25;49.87;101261.03;5108739;27;46424;-77
2022/08/03 02:36:59;;;;;;;;;1.00;1.00;;;;;24.22;49.53;101255.09;5074592;28;45768;-77
2022/08/03 02:39:27;;;;;;;;;1.00;1.00;;;;;24.20;49.92;101260.56;5076123;28;45347;-77
2022/08/03 02:42:01;;;;;;;;;2.00;1.00;;;;;24.20;50.76;101249.94;5074985;28;45487;-77
2022/08/03 02:44:27;;;;;;;;;1.00;1.00;;;;;24.18;50.55;101257.16;5074760;28;46248;-77
2022/08/03 02:46:57;;;;;;;;;0.50;0.50;;;;;24.14;50.49;101245.94;5108908;27;45647;-76
2022/08/03 02:49:24;;;;;;;;;3.25;2.75;;;;;24.15;50.94;101252.94;5109204;27;45542;-76
2022/08/03 02:51:51;;;;;;;;;2.00;2.00;;;;;24.14;50.41;101251.25;5073449;28;67509;-76
2022/08/03 02:54:18;;;;;;;;;2.00;1.00;;;;;24.15;50.30;101250.28;5108541;27;45478;-76
2022/08/03 02:56:44;;;;;;;;;2.00;1.75;;;;;24.13;50.54;101244.22;5108879;27;45653;-77
2022/08/03 02:59:11;;;;;;;;;1.50;1.00;;;;;24.12;50.55;101247.84;5108949;27;45469;-77
2022/08/03 03:01:37;;;;;;;;;1.00;1.00;;;;;24.09;50.47;101248.09;5074696;28;45436;-76
2022/08/03 03:04:03;;;;;;;;;1.75;1.00;;;;;24.05;50.44;101235.16;5074151;27;70387;-77
2022/08/03 03:06:29;;;;;;;;;2.00;2.00;;;;;24.06;50.71;101242.19;5074474;28;45448;-76
2022/08/03 03:08:55;;;;;;;;;3.00;1.00;;;;;24.04;50.67;101239.63;5074418;28;45688;-77
2022/08/03 03:11:21;;;;;;;;;1.50;1.50;;;;;24.01;50.74;101237.19;5074532;28;45396;-76
2022/08/03 03:13:48;;;;;;;;;1.50;1.50;;;;;23.99;50.98;101244.47;5074569;28;69313;-76
2022/08/03 03:16:14;;;;;;;;;1.50;1.50;;;;;23.94;50.78;101242.16;5074309;28;45333;-77
2022/08/03 03:18:42;;;;;;;;;1.00;1.00;;;;;23.92;51.37;101244.09;5075314;27;45463;-77
2022/08/03 03:21:08;;;;;;;;;2.00;1.00;;;;;23.91;51.07;101233.59;5091480;27;45592;-77
2022/08/03 03:23:38;;;;;;;;;1.00;1.00;;;;;23.87;50.96;101234.78;5074212;28;46216;-76
2022/08/03 03:26:05;;;;;;;;;1.50;1.00;;;;;23.89;51.60;101232.88;5057460;28;45694;-77
2022/08/03 03:28:31;;;;;;;;;2.00;2.00;;;;;23.83;51.70;101230.66;5075671;28;45501;-77
2022/08/03 03:30:57;;;;;;;;;1.00;1.00;;;;;23.78;51.27;101226.50;5073069;28;47035;-78
2022/08/03 03:33:22;;;;;;;;;1.00;1.00;;;;;23.75;51.40;101228.56;5058446;28;45392;-77
2022/08/03 03:35:48;;;;;;;;;2.00;1.50;;;;;23.74;51.89;101227.72;5040584;28;45346;-77
2022/08/03 03:38:13;;;;;;;;;1.50;1.50;;;;;23.69;51.85;101216.59;5058781;28;45390;-77
2022/08/03 03:40:39;;;;;;;;;1.75;1.00;;;;;23.67;51.63;101223.84;5057730;28;69438;-77
2022/08/03 03:43:09;;;;;;;;;1.25;1.00;;;;;23.65;51.80;101216.97;5058466;28;47101;-77
2022/08/03 03:45:35;;;;;;;;;1.00;1.00;;;;;23.68;52.27;101230.00;5040467;28;45722;-77
2022/08/03 03:48:01;;;;;;;;;2.50;1.50;;;;;23.63;52.29;101224.22;5058385;28;45366;-77
2022/08/03 03:50:27;;;;;;;;;3.50;2.00;;;;;23.60;51.88;101222.59;5040478;28;45417;-77
2022/08/03 03:52:52;;;;;;;;;2.50;1.00;;;;;23.53;52.06;101213.41;5058382;28;46675;-77
2022/08/03 03:55:18;;;;;;;;;2.00;1.00;;;;;23.56;52.23;101223.81;5040331;28;45534;-77
2022/08/03 03:57:43;;;;;;;;;1.00;1.00;;;;;23.52;52.37;101219.69;5058516;28;45531;-77
2022/08/03 04:00:10;;;;;;;;;3.50;1.00;;;;;23.51;52.45;101215.34;5058062;28;54145;-77
2022/08/03 04:02:36;;;;;;;;;2.00;1.00;;;;;23.53;52.14;101216.94;5057729;28;46301;-75
2022/08/03 04:10:58;;;;;;;;;2.75;1.75;;;;;23.42;52.80;101224.88;5078629;28;45344;-77
2022/08/03 04:13:45;;;;;;;;;4.00;2.00;;;;;23.43;52.89;101225.72;5061993;28;47349;-77
2022/08/03 04:16:13;;;;;;;;;1.75;1.75;;;;;23.40;53.31;101232.09;5063595;28;45602;-77
2022/08/03 04:18:40;;;;;;;;;2.00;2.00;;;;;23.38;52.68;101234.88;5060063;28;45380;-77
2022/08/03 04:21:09;;;;;;;;;3.25;2.75;;;;;23.34;52.62;101225.44;5078256;28;45497;-77
2022/08/03 04:23:36;;;;;;;;;2.50;2.50;;;;;23.35;52.69;101223.63;5077965;28;45518;-76
2022/08/03 04:26:04;;;;;;;;;4.50;2.25;;;;;23.35;52.59;101224.47;5060075;28;45644;-76
2022/08/03 04:28:31;;;;;;;;;4.75;3.00;;;;;23.37;53.30;101227.03;5077103;28;67955;-77
2022/08/03 04:30:58;;;;;;;;;4.75;4.00;;;;;23.37;52.71;101225.22;5072936;28;45419;-77
2022/08/03 04:33:25;;;;;;;;;4.00;2.75;;;;;23.41;52.68;101227.66;5057763;28;45471;-77
2022/08/03 04:35:54;;;;;;;;;6.00;2.75;;;;;23.43;53.00;101231.03;5039595;28;45677;-77
2022/08/03 04:38:20;;;;;;;;;4.75;2.75;;;;;23.37;53.34;101225.22;5057773;28;45554;-76
2022/08/03 04:40:45;;;;;;;;;5.00;3.00;;;;;23.35;52.19;101227.13;5039045;28;55389;-76
2022/08/03 04:43:12;;;;;;;;;3.00;3.00;;;;;23.40;53.10;101226.78;5039228;28;45501;-76
2022/08/03 04:45:38;;;;;;;;;6.00;3.00;;;;;23.38;53.30;101226.91;5039388;28;45352;-76
2022/08/03 04:48:04;;;;;;;;;2.00;2.00;;;;;23.39;53.04;101222.44;5057824;28;45408;-77
2022/08/03 04:50:29;;;;;;;;;5.75;3.00;;;;;23.34;53.22;101225.44;5039562;28;45328;-77
2022/08/03 04:52:55;;;;;;;;;2.50;2.50;;;;;23.34;53.54;101220.13;5039331;28;46443;-76
2022/08/03 04:55:31;;;;;;;;;5.50;4.25;;;;;23.37;53.40;101219.91;5057238;28;45324;-77
2022/08/03 04:57:57;;;;;;;;;6.75;4.00;;;;;23.38;54.08;101223.38;5057535;28;45260;-76
2022/08/03 05:00:23;;;;;;;;;5.00;5.00;;;;;23.33;53.33;101217.59;5057187;28;45272;-77
2022/08/03 05:02:49;;;;;;;;;5.50;4.75;;;;;23.37;53.62;101221.72;5057034;28;46472;-77
2022/08/03 05:05:15;;;;;;;;;4.50;4.50;;;;;23.40;53.62;101224.13;5072591;28;45347;-76
2022/08/03 05:07:41;;;;;;;;;3.75;3.75;;;;;23.42;53.80;101232.84;5077635;28;45421;-77
2022/08/03 05:10:08;;;;;;;;;12.50;6.75;;;;;23.45;54.03;101234.41;5077614;28;45362;-77
2022/08/03 05:12:33;;;;;;;;;6.50;4.75;;;;;23.40;53.99;101218.81;5077484;28;46439;-77
2022/08/03 05:14:59;;;;;;;;;5.00;4.00;;;;;23.43;54.12;101234.53;5075930;28;70063;-77
2022/08/03 05:17:25;;;;;;;;;6.75;5.25;;;;;23.39;53.92;101233.91;5077444;28;45307;-77
2022/08/03 05:19:50;;;;;;;;;6.00;4.00;;;;;23.41;53.41;101232.97;5077322;28;45296;-77
2022/08/03 05:22:16;;;;;;;;;6.00;4.75;;;;;23.41;53.92;101222.34;5076407;28;70004;-77
2022/08/03 05:24:41;;;;;;;;;5.25;4.50;;;;;23.43;53.54;101228.38;5076059;28;68260;-77
2022/08/03 05:27:06;;;;;;;;;4.75;4.75;;;;;23.43;53.90;101225.72;5076426;28;61832;-77
2022/08/03 05:29:32;;;;;;;;;5.75;4.00;;;;;23.45;53.31;101226.44;5075938;28;70244;-77
2022/08/03 05:31:57;;;;;;;;;4.50;3.75;;;;;23.47;54.17;101227.16;5045697;28;46357;-76
2022/08/03 05:34:22;;;;;;;;;4.00;4.00;;;;;23.51;53.37;101228.63;5037776;28;70372;-77
2022/08/03 05:36:48;;;;;;;;;6.00;4.00;;;;;23.54;53.57;101234.56;5056215;28;57502;-77
2022/08/03 05:39:13;;;;;;;;;8.50;4.75;;;;;23.56;53.26;101237.09;5056783;28;45428;-76
2022/08/03 05:41:39;;;;;;;;;4.00;4.00;;;;;23.56;52.92;101237.94;5055695;28;71664;-76
2022/08/03 05:44:04;;;;;;;;;3.50;3.50;;;;;23.58;52.82;101251.13;5056344;28;45496;-77
2022/08/03 05:46:30;;;;;;;;;6.50;4.00;;;;;23.60;53.16;101249.19;5056829;28;45496;-77
2022/08/03 05:48:55;;;;;;;;;4.50;3.00;;;;;23.61;52.82;101250.88;5056432;28;45361;-77
2022/08/03 05:51:20;;;;;;;;;6.00;4.50;;;;;23.63;52.64;101248.13;5055609;28;71822;-77
2022/08/03 05:53:46;;;;;;;;;5.00;4.00;;;;;23.66;53.62;101245.22;5055209;28;45765;-77
2022/08/03 05:56:11;;;;;;;;;3.25;3.00;;;;;23.66;53.86;101243.44;5055646;28;61928;-77
2022/08/03 05:58:37;;;;;;;;;6.50;4.25;;;;;23.69;52.66;101248.47;5056125;28;45254;-77
2022/08/03 06:01:02;;;;;;;;;8.50;4.25;;;;;23.75;53.12;101252.47;5056240;28;45372;-77
2022/08/03 06:03:27;;;;;;;;;3.75;3.50;;;;;23.72;52.65;101239.44;5055893;28;67148;-77
2022/08/03 06:05:55;;;;;;;;;7.50;4.25;;;;;23.75;52.45;101253.34;5075783;28;67488;-77
2022/08/03 06:08:21;;;;;;;;;5.00;3.00;;;;;23.78;52.24;101261.06;5076660;28;45425;-76
2022/08/03 06:10:46;;;;;;;;;4.25;3.25;;;;;23.75;53.11;101248.03;5058377;28;46136;-77
2022/08/03 06:13:12;;;;;;;;;5.00;4.00;;;;;23.82;53.14;101251.09;5075190;28;70028;-77
2022/08/03 06:15:37;;;;;;;;;4.75;4.00;;;;;23.85;52.80;101253.50;5076375;28;45224;-76
2022/08/03 06:18:02;;;;;;;;;4.50;4.50;;;;;23.88;52.96;101255.91;5075780;28;61281;-77
2022/08/03 06:20:29;;;;;;;;;5.25;5.00;;;;;23.93;52.51;101247.59;5075677;28;64870;-77
2022/08/03 06:22:54;;;;;;;;;3.50;3.50;;;;;23.96;52.48;101260.66;5076401;28;45264;-76
2022/08/03 06:25:19;;;;;;;;;4.50;4.25;;;;;23.99;52.96;101260.41;5076125;28;45477;-77
2022/08/03 06:27:45;;;;;;;;;7.25;5.00;;;;;24.02;52.32;101259.34;5075933;28;45420;-77
2022/08/03 06:30:11;;;;;;;;;7.00;4.75;;;;;24.04;52.24;101255.59;5058015;28;46640;-77
2022/08/03 06:32:37;;;;;;;;;5.00;4.00;;;;;24.06;52.29;101266.13;5057311;28;45687;-77
2022/08/03 06:35:04;;;;;;;;;6.00;4.25;;;;;24.01;51.92;101249.66;5055850;28;45688;-76
2022/08/03 06:37:30;;;;;;;;;5.75;4.00;;;;;24.05;52.19;101254.63;5056057;28;45410;-77
2022/08/03 06:39:55;;;;;;;;;6.75;4.75;;;;;24.13;52.56;101267.34;5055612;28;46170;-77
2022/08/03 06:42:21;;;;;;;;;4.50;3.75;;;;;24.17;52.22;101262.63;5055316;28;45526;-77
2022/08/03 06:44:46;;;;;;;;;4.00;3.25;;;;;24.20;52.20;101257.03;5055225;28;53180;-77
2022/08/03 06:47:11;;;;;;;;;6.50;5.00;;;;;24.24;52.93;101254.03;5055697;28;46069;-77
2022/08/03 06:49:37;;;;;;;;;6.25;5.25;;;;;24.25;52.67;101255.72;5054502;28;75154;-77
2022/08/03 06:52:02;;;;;;;;;7.75;4.00;;;;;24.28;52.58;101262.63;5055513;28;45325;-77
2022/08/03 06:54:28;;;;;;;;;5.00;3.25;;;;;24.31;52.33;101259.69;5037578;28;45360;-77
2022/08/03 06:56:53;;;;;;;;;3.50;3.00;;;;;24.33;52.04;101260.44;5055392;28;45436;-77
2022/08/03 06:59:19;;;;;;;;;4.50;4.50;;;;;24.40;52.03;101256.31;5055543;28;45527;-77
2022/08/03 07:01:44;;;;;;;;;6.25;6.25;;;;;24.45;51.56;101255.97;5055647;28;45570;-77
2022/08/03 07:04:10;;;;;;;;;5.75;4.75;;;;;24.50;51.80;101254.63;5061950;28;48010;-77
2022/08/03 07:06:36;;;;;;;;;7.00;4.00;;;;;24.55;51.28;101256.94;5079411;28;45541;-77
2022/08/03 07:09:02;;;;;;;;;4.75;4.00;;;;;24.61;51.33;101255.59;5079219;28;45416;-77
2022/08/03 07:11:27;;;;;;;;;4.25;4.25;;;;;24.68;51.72;101257.69;5078956;28;45471;-76
2022/08/03 07:13:53;;;;;;;;;3.00;3.00;;;;;24.70;51.32;101242.44;5078460;28;66568;-76
2022/08/03 07:16:18;;;;;;;;;4.50;4.00;;;;;24.82;51.25;101256.53;5078655;28;58741;-77
2022/08/03 07:18:43;;;;;;;;;5.50;4.00;;;;;24.89;51.54;101257.75;5078437;28;64419;-77
2022/08/03 07:21:09;;;;;;;;;7.25;3.50;;;;;24.93;50.98;101263.66;5079170;28;45348;-77
2022/08/03 07:23:35;;;;;;;;;7.00;5.00;;;;;24.97;50.54;101257.13;5061047;27;45332;-76
2022/08/03 07:26:00;;;;;;;;;6.50;5.00;;;;;25.04;51.02;101252.13;5078648;28;45539;-77
2022/08/03 07:28:26;;;;;;;;;8.50;7.25;;;;;25.09;50.33;101252.59;5078109;28;71755;-77
2022/08/03 07:30:52;;;;;;;;;6.25;4.50;;;;;25.17;50.34;101246.66;5074621;28;45920;-77
2022/08/03 07:33:17;;;;;;;;;5.00;5.00;;;;;25.25;50.54;101249.53;5058811;28;45222;-77
2022/08/03 07:35:42;;;;;;;;;4.00;3.00;;;;;25.26;50.18;101246.75;5058598;28;45281;-77
2022/08/03 07:38:08;;;;;;;;;5.00;5.00;;;;;25.39;49.94;101256.38;5058656;28;45954;-77
2022/08/03 07:40:33;;;;;;;;;8.75;4.00;;;;;25.46;49.69;101258.41;5058162;28;45567;-77
2022/08/03 07:42:59;;;;;;;;;7.50;4.75;;;;;25.59;49.48;101252.03;5058769;28;45240;-77
2022/08/03 07:45:25;;;;;;;;;5.00;4.75;;;;;25.66;49.72;101253.22;5058477;28;45342;-77
2022/08/03 07:47:50;;;;;;;;;4.00;4.00;;;;;25.75;48.89;101249.75;5058349;28;46307;-77
2022/08/03 07:50:16;;;;;;;;;6.25;6.00;;;;;25.82;48.82;101256.28;5057567;28;70017;-76
2022/08/03 07:52:47;;;;;;;;;7.25;6.00;;;;;25.85;48.72;101260.47;5057622;28;61737;-77
2022/08/03 07:55:12;;;;;;;;;6.50;3.75;;;;;25.94;48.54;101250.88;5057981;28;45298;-77
2022/08/03 07:57:38;;;;;;;;;5.75;5.00;;;;;26.01;47.82;101246.72;5058056;28;50214;-77
2022/08/03 08:00:05;;;;;;;;;8.00;5.00;;;;;26.10;48.28;101253.09;5040148;28;47589;-77
2022/08/03 08:02:30;;;;;;;;;4.75;4.00;;;;;26.16;47.80;101249.88;5058280;28;45536;-77
2022/08/03 08:04:55;;;;;;;;;5.50;4.50;;;;;26.29;47.39;101255.00;5070393;28;55789;-77
2022/08/03 08:07:21;;;;;;;;;5.00;4.00;;;;;26.34;47.15;101248.28;5078466;28;46962;-77
2022/08/03 08:09:46;;;;;;;;;9.25;6.00;;;;;26.43;48.09;101254.63;5077882;28;45262;-77
2022/08/03 08:12:12;;;;;;;;;5.00;4.25;;;;;26.50;46.35;101257.59;5078485;28;45604;-77
2022/08/03 08:14:38;;;;;;;;;6.75;5.00;;;;;26.57;46.51;101248.06;5078242;28;45348;-77
2022/08/03 08:17:03;;;;;;;;;5.75;4.50;;;;;26.68;46.54;101257.81;5076990;28;45393;-77
2022/08/03 08:19:29;;;;;;;;;6.00;5.50;;;;;26.77;46.44;101254.34;5078159;28;45429;-77
2022/08/03 08:21:54;;;;;;;;;6.75;5.00;;;;;26.87;46.69;101255.16;5078387;28;45391;-77
2022/08/03 08:24:20;;;;;;;;;5.50;4.75;;;;;26.88;45.51;101246.19;5077620;28;45462;-77
2022/08/03 08:26:45;;;;;;;;;4.00;4.00;;;;;26.95;45.37;101251.81;5078031;28;46838;-77
2022/08/03 08:29:11;;;;;;;;;6.25;6.00;;;;;27.06;45.26;101245.50;5077915;28;45765;-77
2022/08/03 08:31:36;;;;;;;;;5.00;5.00;;;;;27.16;45.19;101246.34;5067807;28;45305;-77
2022/08/03 08:34:06;;;;;;;;;8.00;4.50;;;;;27.27;44.84;101245.41;5057048;28;66554;-77
2022/08/03 08:36:32;;;;;;;;;6.00;4.75;;;;;27.33;45.20;101236.81;5057659;28;45322;-77
2022/08/03 08:38:58;;;;;;;;;6.00;6.00;;;;;27.41;44.45;101243.16;5057378;28;45450;-77
2022/08/03 08:41:23;;;;;;;;;4.50;4.00;;;;;27.50;44.50;101238.75;5057576;28;45459;-77
2022/08/03 08:43:49;;;;;;;;;4.75;4.25;;;;;27.63;44.18;101237.63;5057591;28;45468;-77
2022/08/03 08:46:15;;;;;;;;;5.75;5.75;;;;;27.69;43.72;101240.59;5057384;28;45483;-77
2022/08/03 08:48:41;;;;;;;;;5.75;3.00;;;;;27.78;42.84;101236.19;5038387;28;71356;-77
2022/08/03 08:51:07;;;;;;;;;6.75;4.50;;;;;27.86;42.99;101236.31;5039647;28;45435;-76
2022/08/03 08:53:35;;;;;;;;;6.00;3.75;;;;;27.95;42.68;101243.50;5056908;28;45532;-76
2022/08/03 08:56:01;;;;;;;;;3.75;3.25;;;;;28.03;42.88;101228.50;5057345;28;45427;-77
2022/08/03 08:58:29;;;;;;;;;4.75;3.75;;;;;28.10;42.39;101222.47;5057391;28;45748;-77
2022/08/03 09:00:54;;;;;;;;;5.00;3.75;;;;;28.21;41.43;101229.44;5057342;28;45474;-77
2022/08/03 09:03:20;;;;;;;;;4.25;4.00;;;;;28.31;42.77;101230.25;5038408;28;69066;-77
2022/08/03 09:05:45;;;;;;;;;4.00;4.00;;;;;28.41;42.16;101224.00;5076857;28;45524;-77
2022/08/03 09:08:11;;;;;;;;;5.00;3.25;;;;;28.46;41.23;101217.19;5076263;28;66873;-77
2022/08/03 09:10:36;;;;;;;;;2.75;2.50;;;;;28.56;40.77;101225.19;5076685;28;64253;-77
2022/08/03 09:13:01;;;;;;;;;2.75;2.75;;;;;28.64;40.68;101222.63;5076341;28;71664;-77
2022/08/03 09:15:32;;;;;;;;;3.00;2.50;;;;;28.71;41.46;101221.00;5076406;28;67625;-77
2022/08/03 09:18:00;;;;;;;;;4.00;2.00;;;;;28.83;40.26;101220.81;5059487;28;45333;-77
2022/08/03 09:20:27;;;;;;;;;2.75;2.25;;;;;28.90;39.62;101221.84;5077310;28;45337;-77
2022/08/03 09:22:58;;;;;;;;;1.75;1.75;;;;;28.97;39.58;101225.63;5076846;28;45423;-77
2022/08/03 09:25:33;;;;;;;;;3.00;2.25;;;;;29.06;40.84;101227.38;5076720;27;45285;-77
2022/08/03 09:28:13;;;;;;;;;4.75;2.00;;;;;29.13;38.72;101223.13;5076793;28;45814;-77
2022/08/03 09:30:40;;;;;;;;;3.25;1.50;;;;;29.22;38.88;101221.38;5075132;28;45594;-77
2022/08/03 09:33:08;;;;;;;;;5.00;2.00;;;;;29.30;39.02;101217.91;5056843;28;45349;-77
2022/08/03 09:35:48;;;;;;;;;2.75;2.00;;;;;29.33;38.24;101213.06;5056124;28;46466;-77
2022/08/03 09:38:14;;;;;;;;;2.00;2.00;;;;;29.45;39.02;101205.59;5057007;28;45321;-77
2022/08/03 09:40:40;;;;;;;;;4.25;3.75;;;;;29.51;38.00;101215.72;5056859;28;45445;-77
2022/08/03 09:43:07;;;;;;;;;2.75;2.75;;;;;29.61;37.85;101212.94;5056678;28;45447;-77
2022/08/03 09:45:36;;;;;;;;;4.00;2.75;;;;;29.67;36.63;101216.84;5056558;28;45548;-76
2022/08/03 09:48:26;;;;;;;;;3.00;2.00;;;;;29.71;37.94;101207.47;5056647;28;45774;-77
2022/08/03 09:50:55;;;;;;;;;4.75;2.25;;;;;29.80;36.72;101206.53;5056169;28;45384;-77
2022/08/03 09:53:21;;;;;;;;;1.75;1.75;;;;;29.87;36.70;101204.06;5056544;28;45384;-77
2022/08/03 09:55:55;;;;;;;;;4.00;1.00;;;;;29.98;37.02;101203.78;5056304;28;45584;-77
2022/08/03 09:58:21;;;;;;;;;3.50;2.25;;;;;30.06;36.08;101201.13;5038517;28;45502;-77
2022/08/03 10:00:56;;;;;;;;;1.00;1.00;;;;;30.14;37.00;101192.28;5038500;28;45340;-77
2022/08/03 10:03:22;;;;;;;;;1.00;1.00;;;;;30.23;36.58;101196.66;5056471;28;45384;-77
2022/08/03 10:05:47;;;;;;;;;2.50;1.75;;;;;30.34;36.93;101194.75;5075739;28;46681;-77
2022/08/03 10:08:18;;;;;;;;;3.25;3.25;;;;;30.43;36.28;101199.13;5076519;28;45288;-77
2022/08/03 10:10:45;;;;;;;;;2.00;2.00;;;;;30.46;35.75;101182.66;5076662;28;45319;-77
2022/08/03 10:13:12;;;;;;;;;3.25;2.75;;;;;30.51;35.13;101184.88;5076607;28;45460;-77
2022/08/03 10:15:39;;;;;;;;;1.75;1.75;;;;;30.55;35.26;101179.00;5076353;28;46045;-77
2022/08/03 10:18:04;;;;;;;;;1.75;1.75;;;;;30.65;35.16;101184.25;5076365;28;45493;-77
2022/08/03 10:20:32;;;;;;;;;3.00;3.00;;;;;30.66;35.19;101175.16;5076147;28;45957;-78
2022/08/03 10:22:59;;;;;;;;;1.75;1.00;;;;;30.77;34.04;101185.59;5058138;28;45261;-77
2022/08/03 10:25:24;;;;;;;;;3.00;2.00;;;;;30.81;34.38;101175.34;5069750;28;47595;-76
2022/08/03 10:27:50;;;;;;;;;2.00;2.00;;;;;30.86;33.96;101175.69;5074108;28;71423;-77
2022/08/03 10:30:16;;;;;;;;;2.00;2.00;;;;;30.93;34.34;101176.75;5075134;28;45271;-77
2022/08/03 10:32:56;;;;;;;;;4.50;1.00;;;;;31.12;34.45;101169.34;5076086;27;45418;-78
2022/08/03 10:35:22;;;;;;;;;2.00;2.00;;;;;31.22;34.25;101160.09;5075714;28;46316;-77
2022/08/03 10:37:58;;;;;;;;;1.50;1.50;;;;;31.30;33.85;101170.00;5108891;27;45732;-77
2022/08/03 10:40:26;;;;;;;;;3.75;1.25;;;;;31.38;35.10;101159.22;5075447;28;45525;-77
2022/08/03 10:42:54;;;;;;;;;4.00;3.00;;;;;31.42;34.51;101157.88;5076103;27;45464;-77
2022/08/03 10:45:23;;;;;;;;;3.25;2.00;;;;;31.53;33.17;101158.56;5076066;28;45466;-77
2022/08/03 10:47:50;;;;;;;;;2.50;2.50;;;;;31.62;33.36;101160.22;5074678;28;45430;-77
2022/08/03 10:50:16;;;;;;;;;2.25;2.00;;;;;31.75;35.16;101162.38;5075744;28;45220;-77
2022/08/03 10:52:58;;;;;;;;;1.50;1.50;;;;;31.84;32.54;101155.94;5074644;28;45404;-77
2022/08/03 10:58:36;;;;;;;;;2.00;2.00;;;;;31.97;31.72;101156.22;5075865;28;45349;-77
2022/08/03 11:01:03;;;;;;;;;2.25;2.25;;;;;32.01;32.40;101138.69;5075928;28;45411;-77
2022/08/03 11:03:29;;;;;;;;;2.00;2.00;;;;;32.14;32.87;101140.84;5075417;27;45348;-77
2022/08/03 11:06:16;;;;;;;;;3.50;2.00;;;;;32.29;33.49;101135.56;5075644;27;47014;-77
2022/08/03 11:08:41;;;;;;;;;1.00;1.00;;;;;32.41;32.44;101135.97;5075708;28;45366;-77
2022/08/03 11:11:16;;;;;;;;;2.50;1.50;;;;;32.60;32.41;101140.94;5074906;28;65528;-77
2022/08/03 11:14:04;;;;;;;;;1.00;1.00;;;;;32.75;32.73;101132.91;5075741;28;45282;-77
2022/08/03 11:16:34;;;;;;;;;1.00;0.25;;;;;32.91;32.03;101134.63;5075338;28;46048;-77
2022/08/03 11:19:01;;;;;;;;;0.50;0.50;;;;;33.07;31.46;101136.34;5075231;27;45859;-77
2022/08/03 11:21:48;;;;;;;;;2.00;1.00;;;;;33.21;30.67;101126.63;5075749;28;45475;-77
2022/08/03 11:24:36;;;;;;;;;2.25;2.00;;;;;33.30;30.34;101121.97;5075312;27;46455;-77
2022/08/03 11:27:31;;;;;;;;;1.50;1.50;;;;;33.42;29.86;101128.59;5075411;28;46340;-77
2022/08/03 11:30:06;;;;;;;;;1.00;1.00;;;;;33.52;30.15;101115.66;5062009;28;45822;-77
2022/08/03 11:32:42;;;;;;;;;2.00;2.00;;;;;33.79;29.81;101113.34;5057103;28;45431;-77
2022/08/03 11:35:13;;;;;;;;;1.25;1.25;;;;;33.92;27.91;101113.50;5055137;28;45301;-77